Time;durP1;ratioP1;P1;durP2;ratioP2;P2;SDS_P1;SDS_P2;PMS_P1;PMS_P2;Temp;Humidity;BMP_temperature;BMP_pressure;BME280_temperature;BME280_humidity;BME280_pressure;Samples;Min_cycle;Max_cycle;Signal;HPM_P1;HPM_P2
2021/07/05 00:04:02;;;;;;;16.00;10.20;;;;;;;15.08;78.05;98418.36;4279428;81;21055;-80
2021/07/05 00:10:06;;;;;;;13.32;8.33;;;;;;;14.98;78.29;98420.08;4281891;81;21599;-80
2021/07/05 00:16:08;;;;;;;14.25;9.48;;;;;;;15.00;78.95;98422.42;4295165;82;22325;-80
2021/07/05 00:22:10;;;;;;;13.32;9.10;;;;;;;15.00;78.93;98421.80;4288978;82;21000;-80
2021/07/05 00:28:11;;;;;;;13.80;9.53;;;;;;;14.86;79.00;98422.02;4290092;82;21467;-80
2021/07/05 00:34:12;;;;;;;19.05;11.28;;;;;;;14.75;79.15;98436.55;4282677;82;21094;-80
2021/07/05 00:40:16;;;;;;;15.85;10.88;;;;;;;14.75;79.13;98431.66;4289353;81;21538;-80
2021/07/05 00:46:17;;;;;;;13.68;10.45;;;;;;;14.64;79.35;98429.06;4286722;82;21063;-80
2021/07/05 00:52:19;;;;;;;12.28;10.90;;;;;;;14.60;79.63;98427.52;4288235;81;21012;-81
2021/07/05 00:58:20;;;;;;;9.78;8.20;;;;;;;14.55;79.65;98423.27;4287943;81;21046;-81
2021/07/05 01:04:21;;;;;;;14.58;9.63;;;;;;;14.41;79.74;98414.44;4262981;82;21556;-80
2021/07/05 01:10:24;;;;;;;15.48;9.55;;;;;;;14.35;79.88;98409.97;4285841;82;21002;-80
2021/07/05 01:16:26;;;;;;;12.35;9.88;;;;;;;14.20;80.05;98407.20;4287611;82;21579;-80
2021/07/05 01:22:27;;;;;;;12.82;8.90;;;;;;;14.18;80.47;98410.95;4282941;82;21021;-80
2021/07/05 01:28:28;;;;;;;15.40;8.80;;;;;;;14.21;81.03;98405.99;4284719;81;21050;-80
2021/07/05 01:34:30;;;;;;;11.63;9.03;;;;;;;14.48;81.58;98408.23;4288170;82;21042;-80
2021/07/05 01:40:31;;;;;;;13.00;8.70;;;;;;;14.43;80.84;98415.57;4288038;82;21040;-80
2021/07/05 01:46:33;;;;;;;13.55;10.03;;;;;;;14.24;81.11;98427.22;4284386;82;21044;-80
2021/07/05 01:52:34;;;;;;;11.90;9.75;;;;;;;14.20;80.98;98430.59;4286894;81;21516;-80
2021/07/05 01:58:38;;;;;;;13.32;8.95;;;;;;;14.20;81.32;98430.59;4280048;81;21067;-80
2021/07/05 02:04:39;;;;;;;10.95;7.65;;;;;;;14.17;81.61;98433.56;4284700;80;21037;-80
2021/07/05 02:10:43;;;;;;;12.20;8.95;;;;;;;14.16;81.61;98430.63;4291145;81;21007;-80
2021/07/05 02:16:44;;;;;;;15.40;8.85;;;;;;;14.14;81.69;98422.61;4286487;81;21156;-80
2021/07/05 02:22:50;;;;;;;12.73;9.35;;;;;;;13.96;81.11;98437.16;4284584;82;21500;-80
2021/07/05 02:28:50;;;;;;;11.15;8.58;;;;;;;13.72;81.69;98432.70;4283843;82;21550;-80
2021/07/05 02:34:51;;;;;;;8.85;7.22;;;;;;;13.75;81.98;98442.29;4287261;81;21070;-80
2021/07/05 02:40:56;;;;;;;11.33;8.58;;;;;;;13.79;82.57;98442.27;4286489;81;21038;-80
2021/07/05 02:46:57;;;;;;;14.70;9.65;;;;;;;13.96;82.62;98445.41;4287181;81;21124;-80
2021/07/05 02:53:00;;;;;;;13.10;10.23;;;;;;;13.84;82.04;98452.21;4285441;81;21031;-80
2021/07/05 02:59:03;;;;;;;13.13;9.90;;;;;;;13.72;82.27;98447.82;4284730;82;21711;-80
2021/07/05 03:05:08;;;;;;;13.83;9.25;;;;;;;13.61;82.00;98454.02;4293626;81;21108;-80
2021/07/05 03:11:10;;;;;;;14.25;8.70;;;;;;;13.39;82.32;98463.67;4300185;81;21041;-80
2021/07/05 03:17:12;;;;;;;14.95;10.10;;;;;;;13.45;82.65;98456.55;4294898;81;21545;-80
2021/07/05 03:23:16;;;;;;;13.18;10.32;;;;;;;13.50;82.59;98456.88;4306091;81;21039;-80
2021/07/05 03:29:18;;;;;;;13.90;9.45;;;;;;;13.54;83.04;98456.27;4293043;81;21046;-80
2021/07/05 03:35:21;;;;;;;9.95;7.47;;;;;;;13.62;83.42;98471.52;4303385;81;21068;-80
2021/07/05 03:41:22;;;;;;;12.58;7.70;;;;;;;13.61;83.43;98469.94;4417863;76;36460;-80
2021/07/05 03:47:24;;;;;;;10.95;8.53;;;;;;;13.72;83.74;98478.87;4420407;78;21121;-81
2021/07/05 03:53:25;;;;;;;12.35;8.68;;;;;;;13.96;83.74;98478.44;4293909;81;21099;-80
2021/07/05 03:59:26;;;;;;;15.83;10.05;;;;;;;14.14;83.63;98493.56;4301409;81;21147;-80
2021/07/05 04:05:28;;;;;;;16.90;8.88;;;;;;;14.18;83.58;98496.28;4227436;81;21557;-81
2021/07/05 04:11:31;;;;;;;11.65;9.43;;;;;;;14.22;83.85;98497.01;4243743;82;21090;-80
2021/07/05 04:17:32;;;;;;;13.80;10.28;;;;;;;14.34;83.84;98491.61;4256529;81;21031;-80
2021/07/05 04:23:34;;;;;;;13.40;8.90;;;;;;;14.29;83.95;98496.18;4376475;79;20988;-80
2021/07/05 04:29:37;;;;;;;15.93;9.05;;;;;;;14.42;84.34;98497.22;4355292;79;21980;-80
2021/07/05 04:35:38;;;;;;;10.98;8.53;;;;;;;14.70;84.31;98500.41;4369893;79;21080;-80
2021/07/05 04:41:40;;;;;;;12.03;9.63;;;;;;;14.92;84.05;98494.78;4376564;79;20988;-81
2021/07/05 04:47:42;;;;;;;20.25;11.22;;;;;;;15.18;83.90;98495.38;4380895;79;21768;-81
2021/07/05 04:53:43;;;;;;;15.28;10.68;;;;;;;15.40;83.77;98494.47;4377668;79;21031;-80
2021/07/05 04:59:45;;;;;;;12.85;9.15;;;;;;;15.53;83.35;98493.44;4375423;79;21051;-80
2021/07/05 05:05:46;;;;;;;12.95;7.92;;;;;;;15.67;83.31;98500.72;4378471;79;21061;-81
2021/07/05 05:11:47;;;;;;;9.88;7.12;;;;;;;15.79;83.19;98497.35;4390815;79;21006;-80
2021/07/05 05:17:49;;;;;;;13.65;9.03;;;;;;;15.97;83.11;98492.90;4377656;79;21086;-81
2021/07/05 05:23:51;;;;;;;13.25;8.70;;;;;;;16.14;82.81;98492.58;4385699;79;21043;-80
2021/07/05 05:29:53;;;;;;;17.45;9.73;;;;;;;16.33;82.51;98494.57;4382115;79;21528;-81
2021/07/05 05:35:54;;;;;;;15.15;8.68;;;;;;;16.54;82.61;98501.06;4386738;79;21826;-81
2021/07/05 05:41:56;;;;;;;17.77;10.00;;;;;;;16.82;82.42;98512.11;4377824;79;21522;-81
2021/07/05 05:47:58;;;;;;;12.90;9.90;;;;;;;17.03;82.35;98516.60;4386626;79;21642;-81
2021/07/05 05:54:01;;;;;;;13.05;8.98;;;;;;;17.26;82.24;98510.77;4377263;79;21017;-81
2021/07/05 06:00:17;;;;;;;11.73;7.85;;;;;;;17.48;82.20;98507.70;4371829;79;21060;-81
2021/07/05 06:06:17;;;;;;;15.13;8.43;;;;;;;17.76;81.95;98500.83;4352594;80;21094;-81
2021/07/05 06:12:25;;;;;;;11.40;9.43;;;;;;;18.01;81.20;98507.13;4364086;80;21609;-82
2021/07/05 06:18:25;;;;;;;10.72;8.00;;;;;;;18.17;80.84;98499.55;4353180;80;20979;-81
2021/07/05 06:24:26;;;;;;;14.85;10.32;;;;;;;18.38;80.69;98509.31;4368552;80;21039;-82
2021/07/05 06:30:36;;;;;;;16.50;9.65;;;;;;;18.59;80.27;98516.41;4367123;80;21035;-82
2021/07/05 06:36:32;;;;;;;18.07;10.20;;;;;;;18.84;80.10;98510.77;4345649;80;21174;-82
2021/07/05 06:42:34;;;;;;;16.00;9.43;;;;;;;19.06;80.10;98504.12;4359746;80;21078;-82
2021/07/05 06:48:36;;;;;;;19.40;8.83;;;;;;;19.28;79.82;98507.06;4359084;80;21566;-81
2021/07/05 06:54:38;;;;;;;12.53;7.65;;;;;;;19.54;79.40;98496.11;4358532;80;21550;-82
2021/07/05 07:00:40;;;;;;;11.38;7.62;;;;;;;19.92;79.29;98503.12;4362021;79;21023;-82
2021/07/05 07:06:42;;;;;;;12.82;7.70;;;;;;;20.47;78.81;98507.80;4408010;79;21054;-82
2021/07/05 07:12:52;;;;;;;14.43;7.78;;;;;;;21.22;78.41;98515.70;4396871;79;21066;-82
2021/07/05 07:19:16;;;;;;;10.72;7.50;;;;;;;;;;4399335;79;21086;-82
2021/07/05 07:25:08;;;;;;;11.28;6.80;;;;;;;22.80;76.59;98499.23;4396549;79;21730;-82
2021/07/05 07:31:11;;;;;;;12.47;6.80;;;;;;;23.56;74.91;98498.81;4398084;79;20991;-82
2021/07/05 07:37:12;;;;;;;11.05;6.50;;;;;;;24.12;73.69;98494.59;4402895;79;21055;-82
2021/07/05 07:43:13;;;;;;;9.58;6.28;;;;;;;24.41;71.84;98501.06;4405210;79;21078;-82
2021/07/05 07:49:15;;;;;;;10.75;5.92;;;;;;;24.79;70.46;98493.90;4410098;79;21020;-83
2021/07/05 07:55:17;;;;;;;8.35;5.95;;;;;;;24.96;68.24;98476.77;4403682;78;21054;-83
2021/07/05 08:01:19;;;;;;;13.28;6.30;;;;;;;25.09;67.29;98480.05;4402833;79;20975;-83
2021/07/05 08:07:20;;;;;;;10.13;5.53;;;;;;;24.97;66.20;98457.30;4413155;79;21048;-83
2021/07/05 08:13:21;;;;;;;5.67;5.03;;;;;;;25.01;64.99;98465.64;4409500;79;21554;-83
2021/07/05 08:19:23;;;;;;;11.83;5.90;;;;;;;25.19;63.89;98476.64;4414222;79;21053;-81
2021/07/05 08:25:26;;;;;;;10.35;5.37;;;;;;;25.04;61.80;98450.70;4402907;79;21015;-81
2021/07/05 08:31:28;;;;;;;8.90;5.60;;;;;;;25.22;61.70;98440.66;4400845;79;21016;-82
2021/07/05 08:37:29;;;;;;;9.30;5.50;;;;;;;25.22;61.70;98440.66;4403444;79;21066;-83
2021/07/05 08:43:31;;;;;;;8.53;5.15;;;;;;;25.30;60.45;98449.42;4401890;79;21028;-81
2021/07/05 08:49:32;;;;;;;5.28;4.78;;;;;;;25.44;59.29;98473.24;4405671;79;21013;-83
2021/07/05 08:55:34;;;;;;;7.08;5.25;;;;;;;25.33;53.28;98467.47;4284460;81;21073;-82
2021/07/05 09:01:35;;;;;;;9.58;4.53;;;;;;;25.31;49.86;98462.94;4297138;81;21089;-82
2021/07/05 09:08:10;;;;;;;6.70;4.35;;;;;;;25.31;49.86;98462.94;4260793;81;21075;-82
2021/07/05 09:14:19;;;;;;;6.25;4.12;;;;;;;25.41;53.47;98459.42;4366368;79;20997;-82
2021/07/05 09:20:21;;;;;;;3.92;3.37;;;;;;;25.65;52.46;98455.83;4213884;82;21066;-83
2021/07/05 09:26:37;;;;;;;6.28;3.98;;;;;;;25.65;52.46;98455.83;4360698;79;21047;-81
2021/07/05 09:32:38;;;;;;;9.87;4.07;;;;;;;25.84;51.70;98480.95;4366372;79;21066;-82
2021/07/05 09:38:42;;;;;;;4.62;4.08;;;;;;;25.83;50.65;98476.58;4366856;79;21000;-82
2021/07/05 09:44:46;;;;;;;5.03;4.28;;;;;;;26.10;50.70;98479.02;4368481;79;21064;-82
2021/07/05 09:51:02;;;;;;;6.50;4.28;;;;;;;26.11;49.54;98472.91;4367978;79;21906;-81
2021/07/05 09:57:24;;;;;;;5.15;4.35;;;;;;;26.14;48.00;98466.93;4369263;79;21119;-80
2021/07/05 10:03:10;;;;;;;6.65;3.85;;;;;;;26.64;49.00;98472.49;4361718;79;21098;-82
2021/07/05 10:09:35;;;;;;;4.80;3.87;;;;;;;27.02;48.51;98474.91;4351301;80;21073;-83
2021/07/05 10:15:39;;;;;;;7.53;4.85;;;;;;;27.39;48.18;98465.89;4347693;80;21027;-82
2021/07/05 10:21:40;;;;;;;7.37;4.25;;;;;;;27.53;47.48;98462.80;4359020;80;21055;-82
2021/07/05 10:27:43;;;;;;;4.60;4.08;;;;;;;27.85;47.25;98457.84;4342452;80;21047;-82
2021/07/05 10:33:45;;;;;;;5.62;3.92;;;;;;;28.11;46.28;98457.11;4336531;80;21061;-82
2021/07/05 10:39:49;;;;;;;4.37;3.77;;;;;;;28.46;46.50;98463.09;4361500;80;21083;-82
2021/07/05 10:45:56;;;;;;;5.45;3.77;;;;;;;28.84;45.93;98459.62;4353702;80;21886;-83
2021/07/05 10:52:13;;;;;;;5.42;3.65;;;;;;;28.67;45.67;98462.42;4357716;80;21458;-82
2021/07/05 10:58:32;;;;;;;7.70;3.60;;;;;;;28.53;45.45;98460.61;4338370;80;21157;-82
2021/07/05 11:04:35;;;;;;;6.80;3.80;;;;;;;28.89;44.97;98463.09;4367256;79;21115;-83
2021/07/05 11:10:36;;;;;;;4.65;3.47;;;;;;;29.44;44.19;98454.64;4379493;79;20984;-83
2021/07/05 11:17:08;;;;;;;3.90;3.52;;;;;;;29.65;43.99;98455.90;4370403;79;21571;-83
2021/07/05 11:23:10;;;;;;;6.87;4.03;;;;;;;30.01;43.36;98454.76;4382526;79;20987;-82
2021/07/05 11:29:26;;;;;;;6.03;3.85;;;;;;;30.24;42.57;98453.39;4376784;79;21008;-82
2021/07/05 11:35:36;;;;;;;6.58;3.45;;;;;;;30.50;40.39;98463.67;4377894;79;20988;-83
2021/07/05 11:41:41;;;;;;;4.45;3.85;;;;;;;30.36;40.25;98457.72;4365404;79;21693;-84
2021/07/05 11:47:42;;;;;;;3.77;3.37;;;;;;;31.00;39.85;98449.86;4360150;79;21651;-84
2021/07/05 11:53:58;;;;;;;4.97;3.77;;;;;;;31.27;39.08;98449.64;4380519;79;21050;-82
2021/07/05 12:00:08;;;;;;;4.20;3.20;;;;;;;31.15;39.59;98446.02;4371681;79;21047;-83
2021/07/05 12:06:12;;;;;;;4.95;3.77;;;;;;;31.04;40.28;98456.01;4385027;79;21161;-83
2021/07/05 12:12:18;;;;;;;5.05;3.90;;;;;;;30.34;39.58;98453.23;4392282;79;21042;-82
2021/07/05 12:18:19;;;;;;;8.10;4.10;;;;;;;30.10;40.07;98454.45;4392203;79;21026;-82
2021/07/05 12:24:30;;;;;;;7.10;4.17;;;;;;;29.51;40.15;98444.87;4385984;79;21058;-83
2021/07/05 12:30:32;;;;;;;4.80;4.40;;;;;;;29.04;40.25;98438.23;4358410;79;21033;-82
2021/07/05 12:36:34;;;;;;;6.25;4.03;;;;;;;28.83;40.46;98442.59;4386918;79;20991;-82
2021/07/05 12:43:04;;;;;;;7.95;4.25;;;;;;;28.73;40.80;98446.92;4390273;79;21008;-83
2021/07/05 12:49:06;;;;;;;5.08;4.25;;;;;;;28.59;40.90;98448.71;4384025;79;21064;-82
2021/07/05 12:55:15;;;;;;;6.45;4.10;;;;;;;28.32;40.92;98451.41;4384868;79;21066;-81
2021/07/05 13:01:21;;;;;;;6.37;4.30;;;;;;;28.03;41.55;98456.05;4388234;79;21587;-82
2021/07/05 13:07:22;;;;;;;6.72;3.92;;;;;;;27.85;41.91;98455.03;4359467;79;21039;-81
2021/07/05 13:13:27;;;;;;;6.95;4.50;;;;;;;27.81;41.67;98455.30;4348522;80;21835;-81
2021/07/05 13:19:29;;;;;;;4.53;4.13;;;;;;;27.68;42.84;98452.14;4311105;80;21690;-81
2021/07/05 13:25:30;;;;;;;7.15;4.60;;;;;;;27.54;43.08;98463.70;4333586;80;21004;-82
2021/07/05 13:31:37;;;;;;;4.85;4.22;;;;;;;27.26;43.23;98471.80;4339364;80;20997;-81
2021/07/05 13:37:47;;;;;;;4.55;4.12;;;;;;;26.92;43.23;98459.48;4349795;80;21006;-82
2021/07/05 13:43:52;;;;;;;7.08;4.65;;;;;;;26.70;44.15;98471.91;4357543;80;21090;-81
2021/07/05 13:50:28;;;;;;;7.80;5.12;;;;;;;26.60;44.85;98469.12;4354948;80;21099;-82
2021/07/05 13:56:34;;;;;;;5.17;4.35;;;;;;;26.65;44.61;98466.25;4351169;80;21554;-81
2021/07/05 14:02:35;;;;;;;11.13;4.77;;;;;;;26.78;44.95;98468.80;4345303;80;21088;-82
2021/07/05 14:08:38;;;;;;;6.35;4.65;;;;;;;26.82;45.30;98469.37;4269203;80;21092;-83
2021/07/05 14:14:39;;;;;;;5.95;4.80;;;;;;;26.79;45.26;98470.36;4252569;81;64248;-82
2021/07/05 14:20:42;;;;;;;8.38;5.03;;;;;;;26.71;45.14;98464.27;4270783;81;20968;-82
2021/07/05 14:26:44;;;;;;;7.17;4.15;;;;;;;26.78;45.64;98477.22;4259466;82;21096;-82
2021/07/05 14:32:46;;;;;;;5.00;4.60;;;;;;;26.89;46.00;98461.13;4262248;82;21504;-82
2021/07/05 14:38:49;;;;;;;8.53;4.33;;;;;;;26.81;46.42;98467.80;4248801;82;21038;-82
2021/07/05 14:44:50;;;;;;;5.25;4.75;;;;;;;26.77;46.43;98465.87;4276350;82;21022;-82
2021/07/05 14:50:51;;;;;;;6.90;4.40;;;;;;;26.80;47.06;98471.89;4267749;82;21569;-81
2021/07/05 14:56:53;;;;;;;5.37;4.55;;;;;;;26.85;46.82;98454.95;4252833;81;21014;-81
2021/07/05 15:02:54;;;;;;;6.60;5.12;;;;;;;26.76;47.08;98462.94;4256605;82;21067;-81
2021/07/05 15:08:56;;;;;;;7.35;5.53;;;;;;;26.78;47.29;98462.44;4370535;80;21035;-83
2021/07/05 15:14:57;;;;;;;6.55;5.78;;;;;;;26.89;46.88;98468.16;4371978;80;21946;-81
2021/07/05 15:20:59;;;;;;;6.67;4.97;;;;;;;27.00;45.96;98464.79;4370681;80;21031;-81
2021/07/05 15:27:01;;;;;;;5.15;4.30;;;;;;;27.05;46.32;98453.45;4360179;80;21059;-81
2021/07/05 15:33:02;;;;;;;5.33;4.60;;;;;;;26.97;45.83;98459.42;4360942;80;20984;-82
2021/07/05 15:39:07;;;;;;;5.40;4.90;;;;;;;26.95;45.62;98457.08;4372950;80;21024;-82
2021/07/05 15:45:10;;;;;;;5.10;4.60;;;;;;;26.88;45.63;98458.95;4375406;80;20995;-82
2021/07/05 15:51:12;;;;;;;10.38;4.80;;;;;;;26.75;45.59;98459.97;4369907;80;21848;-82
2021/07/05 15:57:14;;;;;;;5.60;5.05;;;;;;;26.59;45.67;98467.59;4359654;76;29573;-82
2021/07/05 16:03:16;;;;;;;7.87;4.97;;;;;;;26.38;46.02;98473.71;4361056;79;21013;-82
2021/07/05 16:09:17;;;;;;;6.25;5.47;;;;;;;26.19;46.13;98464.83;4230484;81;22103;-82
2021/07/05 16:15:20;;;;;;;7.15;5.55;;;;;;;26.07;46.18;98477.97;4230558;82;21134;-81
2021/07/05 16:21:21;;;;;;;5.87;5.28;;;;;;;25.94;47.03;98482.34;4236167;82;21377;-81
2021/07/05 16:27:22;;;;;;;7.80;5.78;;;;;;;25.74;47.18;98487.31;4230054;82;21075;-81
2021/07/05 16:33:24;;;;;;;8.95;6.67;;;;;;;25.56;47.49;98472.78;4232876;82;21072;-82
2021/07/05 16:39:25;;;;;;;8.15;6.95;;;;;;;25.59;47.89;98488.62;4109795;80;9999598;-80
2021/07/05 16:45:26;;;;;;;9.63;7.33;;;;;;;25.49;47.67;98504.78;4227547;81;21974;-82
2021/07/05 16:51:42;;;;;;;10.40;7.10;;;;;;;25.38;47.89;98500.41;4226509;82;21058;-81
2021/07/05 16:57:34;;;;;;;11.33;7.80;;;;;;;25.32;47.89;98498.13;4238126;82;21028;-81
2021/07/05 17:03:43;;;;;;;12.90;7.55;;;;;;;25.24;48.53;98491.98;4222079;82;21455;-81
2021/07/05 17:09:49;;;;;;;12.47;8.08;;;;;;;25.10;48.77;98500.56;4382707;79;21064;-81
2021/07/05 17:15:50;;;;;;;10.10;7.47;;;;;;;24.99;49.08;98507.98;4383865;79;21862;-79
2021/07/05 17:21:52;;;;;;;10.13;7.58;;;;;;;24.80;49.42;98508.81;4386451;79;21491;-82
2021/07/05 17:27:53;;;;;;;8.98;7.33;;;;;;;24.64;49.96;98521.83;4391395;79;21002;-80
2021/07/05 17:33:54;;;;;;;8.55;7.12;;;;;;;24.48;50.85;98530.06;4396597;79;20991;-81
2021/07/05 17:39:56;;;;;;;10.50;6.47;;;;;;;24.23;51.69;98529.17;4266594;78;9999678;-81
2021/07/05 17:45:58;;;;;;;8.73;6.33;;;;;;;24.04;51.89;98539.58;4378364;79;21003;-81
2021/07/05 17:52:00;;;;;;;7.12;5.83;;;;;;;23.87;52.12;98545.37;4388040;79;20975;-81
2021/07/05 17:58:01;;;;;;;6.97;5.85;;;;;;;23.73;52.36;98552.44;4387009;79;21558;-81
2021/07/05 18:04:02;;;;;;;7.37;5.65;;;;;;;23.60;52.65;98558.85;4390803;79;21062;-81
2021/07/05 18:10:09;;;;;;;8.93;6.05;;;;;;;23.52;53.21;98564.66;4243923;79;21030;-81
2021/07/05 18:16:12;;;;;;;10.40;6.50;;;;;;;23.38;53.88;98573.70;4248122;79;21059;-81
2021/07/05 18:22:13;;;;;;;10.32;6.00;;;;;;;23.30;54.27;98579.47;4236815;81;21072;-80
2021/07/05 18:28:14;;;;;;;6.92;6.10;;;;;;;23.19;54.45;98584.10;4250511;79;21116;-81
2021/07/05 18:34:16;;;;;;;9.43;5.90;;;;;;;23.08;54.52;98593.59;4241241;80;21614;-81
2021/07/05 18:40:20;;;;;;;8.15;6.05;;;;;;;23.02;55.19;98602.44;4122621;81;10000261;-81
2021/07/05 18:46:22;;;;;;;10.20;6.53;;;;;;;22.89;55.30;98599.67;4246400;79;21034;-81
2021/07/05 18:52:24;;;;;;;9.95;6.12;;;;;;;22.81;56.77;98615.17;4249306;79;21508;-80
2021/07/05 18:58:26;;;;;;;10.35;6.37;;;;;;;22.63;56.90;98617.98;4264405;79;21078;-81
2021/07/05 19:04:28;;;;;;;8.93;6.12;;;;;;;22.45;57.18;98624.89;4254114;79;21024;-81
2021/07/05 19:10:29;;;;;;;9.45;6.90;;;;;;;22.39;57.43;98642.88;4380802;78;21082;-82
2021/07/05 19:16:30;;;;;;;9.15;6.95;;;;;;;22.34;57.95;98646.88;4382234;78;21712;-82
2021/07/05 19:22:32;;;;;;;12.85;8.25;;;;;;;22.32;58.25;98655.70;4389976;78;20999;-81
2021/07/05 19:28:34;;;;;;;11.40;7.70;;;;;;;22.30;58.30;98651.83;4390079;79;21858;-80
2021/07/05 19:34:35;;;;;;;17.60;7.72;;;;;;;22.26;58.59;98662.34;4392465;79;21081;-82
2021/07/05 19:40:37;;;;;;;12.60;8.30;;;;;;;22.19;58.68;98673.80;4393064;79;21042;-80
2021/07/05 19:46:39;;;;;;;10.68;8.13;;;;;;;22.16;58.78;98677.50;4394011;78;21004;-80
2021/07/05 19:52:41;;;;;;;14.47;8.45;;;;;;;22.14;59.07;98668.20;4389527;79;21003;-81
2021/07/05 19:58:43;;;;;;;8.95;7.45;;;;;;;22.09;59.30;98672.98;4382815;79;21037;-81
2021/07/05 20:04:44;;;;;;;11.50;7.58;;;;;;;22.03;59.48;98669.86;4395274;79;21599;-81
2021/07/05 20:10:45;;;;;;;11.83;8.05;;;;;;;21.96;59.77;98677.88;4259881;79;21044;-81
2021/07/05 20:16:47;;;;;;;13.28;8.30;;;;;;;21.91;59.88;98684.05;4233833;81;21051;-81
2021/07/05 20:22:48;;;;;;;12.60;8.53;;;;;;;21.85;60.36;98692.09;4251696;79;21098;-81
2021/07/05 20:28:50;;;;;;;10.63;7.50;;;;;;;21.82;60.38;98694.38;4232110;79;21062;-82
2021/07/05 20:41:10;;;;;;;11.78;8.10;;;;;;;21.77;61.11;98692.20;4665633;74;22269;-82
2021/07/05 20:47:12;;;;;;;11.75;8.53;;;;;;;21.63;61.32;98692.88;4594240;76;20985;-79
2021/07/05 20:53:13;;;;;;;12.55;8.50;;;;;;;21.54;61.71;98704.57;4591531;76;21067;-80
2021/07/05 20:59:14;;;;;;;9.48;8.10;;;;;;;21.37;62.31;98708.19;4592238;76;21072;-79
2021/07/05 21:05:16;;;;;;;10.60;8.38;;;;;;;21.22;62.48;98720.30;4588655;76;21041;-82
2021/07/05 21:11:18;;;;;;;10.25;8.28;;;;;;;21.06;63.00;98717.08;4589270;76;21036;-83
2021/07/05 21:17:20;;;;;;;10.90;8.10;;;;;;;21.01;63.45;98722.42;4589421;76;21534;-82
2021/07/05 21:23:21;;;;;;;9.13;8.03;;;;;;;20.96;63.56;98724.39;4587554;76;21016;-82
2021/07/05 21:29:23;;;;;;;11.22;8.38;;;;;;;20.86;63.65;98724.88;4588836;76;21044;-83
2021/07/05 21:35:24;;;;;;;10.35;8.68;;;;;;;20.72;63.87;98730.94;4587067;76;21085;-82
2021/07/05 21:41:26;;;;;;;12.53;8.60;;;;;;;20.64;64.20;98737.20;4589338;76;21028;-82
2021/07/05 21:47:27;;;;;;;11.00;7.53;;;;;;;20.53;64.59;98743.72;4591928;76;21061;-82
2021/07/05 21:53:29;;;;;;;13.70;9.40;;;;;;;20.44;65.59;98742.23;4590544;76;21661;-83
2021/07/05 21:59:31;;;;;;;11.25;9.78;;;;;;;20.27;66.02;98744.95;4584112;76;21022;-82
2021/07/05 22:05:36;;;;;;;14.15;9.65;;;;;;;20.16;66.39;98755.02;4593777;76;21044;-83
2021/07/05 22:11:37;;;;;;;14.70;9.38;;;;;;;20.07;66.67;98745.16;4559649;76;20971;-82
2021/07/05 22:17:39;;;;;;;13.20;8.30;;;;;;;19.94;67.13;98747.92;4585816;76;21048;-82
2021/07/05 22:23:41;;;;;;;11.93;7.95;;;;;;;19.97;67.93;98749.02;4590008;76;21546;-82
2021/07/05 22:29:43;;;;;;;14.85;8.63;;;;;;;19.97;68.17;98760.92;4588407;76;20988;-83
2021/07/05 22:35:44;;;;;;;11.53;8.05;;;;;;;19.88;68.63;98763.59;4586857;76;20983;-82
2021/07/05 22:41:49;;;;;;;12.35;8.18;;;;;;;19.84;69.16;98759.36;4495141;76;21073;-83
2021/07/05 22:47:53;;;;;;;10.58;8.23;;;;;;;19.76;69.57;98760.16;4487805;78;21452;-82
2021/07/05 22:53:54;;;;;;;12.43;7.47;;;;;;;19.65;69.75;98768.64;4503547;76;21006;-82
2021/07/05 22:59:55;;;;;;;14.47;9.90;;;;;;;19.61;70.17;98766.56;4504320;78;21103;-82
2021/07/05 23:05:57;;;;;;;12.40;8.08;;;;;;;19.57;70.40;98761.73;4503821;78;21549;-82
2021/07/05 23:11:58;;;;;;;10.95;6.75;;;;;;;19.53;70.87;98770.16;4494591;78;21014;-82
2021/07/05 23:17:59;;;;;;;13.20;8.65;;;;;;;19.55;71.11;98753.84;4499796;78;21140;-83
2021/07/05 23:24:01;;;;;;;12.63;10.18;;;;;;;19.52;71.23;98752.55;4436749;78;21043;-80
2021/07/05 23:30:05;;;;;;;14.18;9.93;;;;;;;19.39;71.40;98750.34;4498767;77;21084;-79
2021/07/05 23:36:06;;;;;;;11.10;8.80;;;;;;;19.06;71.46;98750.26;4494467;77;20982;-79
2021/07/05 23:42:08;;;;;;;12.03;8.38;;;;;;;18.87;72.14;98751.91;4578363;76;21110;-80
2021/07/05 23:48:09;;;;;;;14.13;8.85;;;;;;;18.86;72.54;98759.28;4579642;76;21045;-79
2021/07/05 23:54:10;;;;;;;13.08;9.23;;;;;;;18.80;72.70;98754.09;4578782;76;21052;-79
